Aérodrome :
LOGIN :

S'inscrire | Disclaimer

   EN    FR    IT 

 










Légende :    VFR   VFR Marginal   IFR   IFR Intensif   IFR Très Intensif
Visi : 
Plafond : 
>= 8 km
>= 3000ft
5 à 8 km
1000 à 3000 ft
1500m à 5 km
500 à 1000 ft
800 à 1500m
200 à 500 ft
< 800m
< 200 ft
Symboles :   Orages  Brouillard  Fortes neiges  Fortes précipitations  Vent > 20 kt
SIGMETs :   Divers  Orages  Givrage  Turbulence  Onde Orograph.  Cendres Volcan.






- Altitude de l'aérodrome : 512 ft
- Code IATA : URO


LFOP - Rouen Vallée de Seine

DERNIER METAR :
  • 211600Z AUTO 15008KT 9999 -RA OVC017/// ///TCU 08/06 Q1001 TEMPO 3000 RA OVC003

METARs EXPIRÉS :
  • 211530Z AUTO 13009KT 9999 BKN019 OVC033 08/05 Q1001 TEMPO 3000 RA OVC003
  • 211500Z AUTO 13009KT 9999 OVC019 08/05 Q1001 TEMPO 3000 RA OVC003
  • 211430Z AUTO 13008KT 9999 OVC019 08/05 Q1001 TEMPO 3000 RA OVC003
  • 211400Z AUTO 12010KT 9999 BKN021 BKN048 OVC056 07/05 Q1001 TEMPO 3000 RA OVC003
  • 211330Z AUTO 12011KT 9999 FEW032 OVC060 08/05 Q1001 TEMPO 3000 RA OVC003
  • 211300Z AUTO 12010KT CAVOK 07/05 Q1002 BECMG OVC008

TAF AMD TAF LFOP
Valide du 21 à 15h jusqu'au 22 à 12h UTC


211506Z 2115/2212 13010KT 7000 SCT015 OVC020
BECMG 2115/2117 OVC012
TEMPO 2117/2121 3000 RA OVC003
TEMPO 2121/2210 OVC003
BECMG 2210/2212 NSC
ATIS : +33 2 35 80 80 34
Météo : +33 2 32 86 52 80



MET'MAP, la Météo Aéronautique d'un coup d'oeil ! - Copyright ORBIFLY Décembre 2007 - Disclaimer

ORBIFLY MET'MAP TEAM :

Programmation & Développement : Alexandra Zaïnal
Conception & Développement : Baudouin d'Aumeries
Co-Programmation & Développement : Marc-Olivier Méhu
Soutien technique & logistique : Manuel Goepfert

Contact : metmap@orbifly.com




SOURCES & CREDITS :

   NOAA